Terminal Aerodrome Forecast
Issued by NWS Cleveland, OH

Home | Current Version | Previous Version | Text Only | Print | Product List | Glossary On
Versions: 1 2 3 4 5 6 7 8 9 10 11 12 13 14 15 16 17
000
FTUS41 KCLE 310522
TAFMFD
TAF
KMFD 310522Z 3106/0106 16006KT P6SM SCT120
     FM310900 20003KT 2SM BR OVC007
     FM311500 24005KT P6SM BKN012
     FM311700 26007KT P6SM BKN040
     FM010400 VRB03KT 4SM BR SCT250=

USA.gov is the U.S. government's official web portal to all federal, state and local government web resources and services.